createdAt,value
2018-06-17T00:00:15.532Z,1004.29
2018-06-17T00:01:15.595Z,1004.26
2018-06-17T00:02:15.591Z,1004.28
2018-06-17T00:03:15.658Z,1004.32
2018-06-17T00:04:15.643Z,1004.25
2018-06-17T00:05:15.671Z,1004.27
2018-06-17T00:06:15.697Z,1004.25
2018-06-17T00:07:15.725Z,1004.29
2018-06-17T00:08:15.754Z,1004.27
2018-06-17T00:09:15.783Z,1004.27
2018-06-17T00:10:15.809Z,1004.27
2018-06-17T00:11:15.838Z,1004.27
2018-06-17T00:12:15.866Z,1004.28
2018-06-17T00:13:15.894Z,1004.28
2018-06-17T00:14:15.921Z,1004.30
2018-06-17T00:15:15.966Z,1004.31
2018-06-17T00:16:16.007Z,1004.31
2018-06-17T00:17:16.007Z,1004.33
2018-06-17T00:18:16.033Z,1004.35
2018-06-17T00:19:16.062Z,1004.36
2018-06-17T00:20:16.091Z,1004.33
2018-06-17T00:21:16.118Z,1004.35
2018-06-17T00:22:16.145Z,1004.37
2018-06-17T00:23:16.174Z,1004.39
2018-06-17T00:24:16.202Z,1004.39
2018-06-17T00:25:16.236Z,1004.39
2018-06-17T00:26:16.258Z,1004.41
2018-06-17T00:27:16.287Z,1004.44
2018-06-17T00:28:16.316Z,1004.46
2018-06-17T00:29:16.342Z,1004.45
2018-06-17T00:30:16.368Z,1004.47
2018-06-17T00:31:16.397Z,1004.45
2018-06-17T00:32:16.425Z,1004.47
2018-06-17T00:33:16.456Z,1004.48
2018-06-17T00:34:16.481Z,1004.44
2018-06-17T00:35:16.509Z,1004.45
2018-06-17T00:36:16.537Z,1004.46
2018-06-17T00:37:16.565Z,1004.40
2018-06-17T00:38:16.593Z,1004.40
2018-06-17T00:39:16.622Z,1004.41
2018-06-17T00:40:16.704Z,1004.37
2018-06-17T00:41:16.678Z,1004.39
2018-06-17T00:42:16.705Z,1004.38
2018-06-17T00:43:16.733Z,1004.36
2018-06-17T00:44:16.763Z,1004.35
2018-06-17T00:45:16.791Z,1004.37
2018-06-17T00:46:16.820Z,1004.37
2018-06-17T00:47:16.881Z,1004.38
2018-06-17T00:48:16.915Z,1004.40
2018-06-17T00:49:16.901Z,1004.39
2018-06-17T00:50:16.929Z,1004.41
2018-06-17T00:51:16.956Z,1004.41
2018-06-17T00:52:16.986Z,1004.40
2018-06-17T00:53:17.013Z,1004.38
2018-06-17T00:54:17.080Z,1004.36
2018-06-17T00:55:17.069Z,1004.37
2018-06-17T00:56:17.100Z,1004.38
2018-06-17T00:57:17.124Z,1004.36
2018-06-17T00:58:17.152Z,1004.38
2018-06-17T00:59:17.180Z,1004.34
2018-06-17T01:00:17.209Z,1004.31
2018-06-17T01:01:17.259Z,1004.36
2018-06-17T01:02:17.265Z,1004.34
2018-06-17T01:03:17.292Z,1004.35
2018-06-17T01:04:17.320Z,1004.36
2018-06-17T01:05:17.349Z,1004.37
2018-06-17T01:06:17.393Z,1004.34
2018-06-17T01:07:17.404Z,1004.32
2018-06-17T01:08:17.432Z,1004.34
2018-06-17T01:09:17.486Z,1004.34
2018-06-17T01:10:17.487Z,1004.33
2018-06-17T01:11:17.515Z,1004.31
2018-06-17T01:12:17.544Z,1004.35
2018-06-17T01:13:17.572Z,1004.34
2018-06-17T01:14:17.599Z,1004.35
2018-06-17T01:15:17.628Z,1004.37
2018-06-17T01:16:17.656Z,1004.36
2018-06-17T01:17:17.709Z,1004.38
2018-06-17T01:18:17.711Z,1004.38
2018-06-17T01:19:17.741Z,1004.41
2018-06-17T01:20:17.769Z,1004.37
2018-06-17T01:21:17.795Z,1004.39
2018-06-17T01:22:17.824Z,1004.40
2018-06-17T01:23:17.851Z,1004.42
2018-06-17T01:24:17.880Z,1004.42
2018-06-17T01:25:17.908Z,1004.42
2018-06-17T01:26:17.935Z,1004.39
2018-06-17T01:27:17.964Z,1004.40
2018-06-17T01:28:17.994Z,1004.41
2018-06-17T01:29:18.020Z,1004.41
2018-06-17T01:30:18.050Z,1004.40
2018-06-17T01:31:18.075Z,1004.42
2018-06-17T01:32:18.103Z,1004.41
2018-06-17T01:33:18.131Z,1004.41
2018-06-17T01:34:18.159Z,1004.42
2018-06-17T01:35:18.204Z,1004.44
2018-06-17T01:36:18.215Z,1004.44
2018-06-17T01:37:18.279Z,1004.41
2018-06-17T01:38:18.272Z,1004.44
2018-06-17T01:39:18.299Z,1004.42
2018-06-17T01:40:18.328Z,1004.43
2018-06-17T01:41:18.355Z,1004.45
2018-06-17T01:42:18.382Z,1004.45
2018-06-17T01:43:18.411Z,1004.45
2018-06-17T01:44:18.439Z,1004.43
2018-06-17T01:45:18.468Z,1004.47
2018-06-17T01:46:18.494Z,1004.45
2018-06-17T01:47:18.522Z,1004.44
2018-06-17T01:48:18.550Z,1004.46
2018-06-17T01:49:18.579Z,1004.47
2018-06-17T01:50:18.606Z,1004.49
2018-06-17T01:51:18.634Z,1004.49
2018-06-17T01:52:18.663Z,1004.45
2018-06-17T01:53:18.690Z,1004.51
2018-06-17T01:54:18.717Z,1004.50
2018-06-17T01:55:18.746Z,1004.52
2018-06-17T01:56:18.773Z,1004.49
2018-06-17T01:57:18.803Z,1004.51
2018-06-17T01:58:18.829Z,1004.53
2018-06-17T01:59:18.858Z,1004.50
2018-06-17T02:00:18.890Z,1004.52
2018-06-17T02:01:18.914Z,1004.56
2018-06-17T02:02:18.941Z,1004.53
2018-06-17T02:03:18.971Z,1004.57
2018-06-17T02:04:18.997Z,1004.54
2018-06-17T02:05:19.026Z,1004.55
2018-06-17T02:06:19.052Z,1004.55
2018-06-17T02:07:19.081Z,1004.53
2018-06-17T02:08:19.110Z,1004.54
2018-06-17T02:09:19.138Z,1004.53
2018-06-17T02:10:19.165Z,1004.53
2018-06-17T02:11:19.193Z,1004.52
2018-06-17T02:12:19.220Z,1004.56
2018-06-17T02:13:19.249Z,1004.53
2018-06-17T02:14:19.277Z,1004.56
2018-06-17T02:15:19.305Z,1004.57
2018-06-17T02:16:19.354Z,1004.55
2018-06-17T02:17:19.362Z,1004.54
2018-06-17T02:18:19.387Z,1004.56
2018-06-17T02:19:19.416Z,1004.55
2018-06-17T02:20:19.445Z,1004.52
2018-06-17T02:21:19.473Z,1004.56
2018-06-17T02:22:19.500Z,1004.53
2018-06-17T02:23:19.528Z,1004.55
2018-06-17T02:24:19.593Z,1004.55
2018-06-17T02:25:19.585Z,1004.58
2018-06-17T02:26:19.613Z,1004.56
2018-06-17T02:27:19.640Z,1004.54
2018-06-17T02:28:19.668Z,1004.55
2018-06-17T02:29:19.696Z,1004.54
2018-06-17T02:30:19.726Z,1004.54
2018-06-17T02:31:19.768Z,1004.54
2018-06-17T02:32:19.780Z,1004.54
2018-06-17T02:33:19.813Z,1004.56
2018-06-17T02:34:19.860Z,1004.55
2018-06-17T02:35:19.893Z,1004.56
2018-06-17T02:36:19.893Z,1004.56
2018-06-17T02:37:19.920Z,1004.58
2018-06-17T02:38:19.948Z,1004.53
2018-06-17T02:39:19.976Z,1004.59
2018-06-17T02:40:20.005Z,1004.57
2018-06-17T02:41:20.033Z,1004.53
2018-06-17T02:42:20.061Z,1004.55
2018-06-17T02:43:20.088Z,1004.56
2018-06-17T02:44:20.117Z,1004.58
2018-06-17T02:45:20.145Z,1004.55
2018-06-17T02:46:20.185Z,1004.56
2018-06-17T02:47:20.200Z,1004.57
2018-06-17T02:48:20.229Z,1004.56
2018-06-17T02:49:20.258Z,1004.53
2018-06-17T02:50:20.284Z,1004.55
2018-06-17T02:51:20.314Z,1004.55
2018-06-17T02:52:20.340Z,1004.57
2018-06-17T02:53:20.368Z,1004.56
2018-06-17T02:54:20.397Z,1004.56
2018-06-17T02:55:20.424Z,1004.57
2018-06-17T02:56:20.452Z,1004.55
2018-06-17T02:57:20.508Z,1004.57
2018-06-17T02:58:20.508Z,1004.55
2018-06-17T02:59:20.535Z,1004.56
2018-06-17T03:00:20.565Z,1004.51
2018-06-17T03:01:20.592Z,1004.51
2018-06-17T03:02:20.619Z,1004.53
2018-06-17T03:03:20.649Z,1004.48
2018-06-17T03:04:20.676Z,1004.51
2018-06-17T03:05:20.705Z,1004.48
2018-06-17T03:06:20.732Z,1004.55
2018-06-17T03:07:20.810Z,1004.53
2018-06-17T03:08:20.788Z,1004.54
2018-06-17T03:09:20.818Z,1004.58
2018-06-17T03:10:20.846Z,1004.57
2018-06-17T03:11:20.899Z,1004.56
2018-06-17T03:12:20.900Z,1004.54
2018-06-17T03:13:20.929Z,1004.52
2018-06-17T03:14:20.956Z,1004.55
2018-06-17T03:15:21.005Z,1004.57
2018-06-17T03:16:21.012Z,1004.56
2018-06-17T03:17:21.041Z,1004.56
2018-06-17T03:18:21.105Z,1004.60
2018-06-17T03:19:21.099Z,1004.60
2018-06-17T03:20:21.125Z,1004.61
2018-06-17T03:21:21.153Z,1004.63
2018-06-17T03:22:21.181Z,1004.59
2018-06-17T03:23:21.208Z,1004.59
2018-06-17T03:24:21.240Z,1004.62
2018-06-17T03:25:21.264Z,1004.58
2018-06-17T03:26:21.295Z,1004.58
2018-06-17T03:27:21.321Z,1004.57
2018-06-17T03:28:21.349Z,1004.54
2018-06-17T03:29:21.379Z,1004.57
2018-06-17T03:30:21.409Z,1004.56
2018-06-17T03:31:21.433Z,1004.59
2018-06-17T03:32:21.462Z,1004.58
2018-06-17T03:33:21.490Z,1004.55
2018-06-17T03:34:21.518Z,1004.55
2018-06-17T03:35:21.546Z,1004.59
2018-06-17T03:36:21.574Z,1004.61
2018-06-17T03:37:21.603Z,1004.57
2018-06-17T03:38:21.630Z,1004.57
2018-06-17T03:39:21.660Z,1004.60
2018-06-17T03:40:21.688Z,1004.61
2018-06-17T03:41:21.716Z,1004.64
2018-06-17T03:42:21.743Z,1004.63
2018-06-17T03:43:21.774Z,1004.63
2018-06-17T03:44:21.799Z,1004.62
2018-06-17T03:45:21.860Z,1004.62
2018-06-17T03:46:21.855Z,1004.62
2018-06-17T03:47:21.883Z,1004.59
2018-06-17T03:48:21.914Z,1004.60
2018-06-17T03:49:21.945Z,1004.64
2018-06-17T03:50:21.969Z,1004.61
2018-06-17T03:51:22.001Z,1004.65
2018-06-17T03:52:22.034Z,1004.65
2018-06-17T03:53:22.053Z,1004.69
2018-06-17T03:54:22.081Z,1004.69
2018-06-17T03:55:22.110Z,1004.70
2018-06-17T03:56:22.137Z,1004.69
2018-06-17T03:57:22.167Z,1004.73
2018-06-17T03:58:22.193Z,1004.69
2018-06-17T03:59:22.221Z,1004.68
2018-06-17T04:00:22.251Z,1004.68
2018-06-17T04:01:22.279Z,1004.67
2018-06-17T04:02:22.307Z,1004.69
2018-06-17T04:03:22.339Z,1004.67
2018-06-17T04:04:22.364Z,1004.63
2018-06-17T04:05:22.405Z,1004.64
2018-06-17T04:06:22.419Z,1004.64
2018-06-17T04:07:22.447Z,1004.68
2018-06-17T04:08:22.478Z,1004.64
2018-06-17T04:09:22.504Z,1004.65
2018-06-17T04:10:22.586Z,1004.63
2018-06-17T04:11:22.562Z,1004.61
2018-06-17T04:12:22.589Z,1004.63
2018-06-17T04:13:22.617Z,1004.62
2018-06-17T04:14:22.644Z,1004.62
2018-06-17T04:15:22.673Z,1004.64
2018-06-17T04:16:22.701Z,1004.61
2018-06-17T04:17:22.729Z,1004.57
2018-06-17T04:18:22.757Z,1004.63
2018-06-17T04:19:22.785Z,1004.63
2018-06-17T04:20:22.813Z,1004.62
2018-06-17T04:21:22.842Z,1004.63
2018-06-17T04:22:22.869Z,1004.60
2018-06-17T04:23:22.901Z,1004.60
2018-06-17T04:24:22.926Z,1004.61
2018-06-17T04:25:23.012Z,1004.57
2018-06-17T04:26:22.986Z,1004.58
2018-06-17T04:27:23.011Z,1004.57
2018-06-17T04:28:23.039Z,1004.58
2018-06-17T04:29:23.067Z,1004.57
2018-06-17T04:30:23.095Z,1004.57
2018-06-17T04:31:23.124Z,1004.57
2018-06-17T04:32:23.152Z,1004.60
2018-06-17T04:33:23.198Z,1004.58
2018-06-17T04:34:23.208Z,1004.58
2018-06-17T04:35:23.235Z,1004.58
2018-06-17T04:36:23.264Z,1004.61
2018-06-17T04:37:23.293Z,1004.58
2018-06-17T04:38:23.320Z,1004.59
2018-06-17T04:39:23.349Z,1004.59
2018-06-17T04:40:23.377Z,1004.59
2018-06-17T04:41:23.406Z,1004.58
2018-06-17T04:42:23.433Z,1004.59
2018-06-17T04:43:23.502Z,1004.61
2018-06-17T04:44:23.507Z,1004.60
2018-06-17T04:45:23.518Z,1004.61
2018-06-17T04:46:23.547Z,1004.58
2018-06-17T04:47:23.586Z,1004.60
2018-06-17T04:48:23.648Z,1004.59
2018-06-17T04:49:23.632Z,1004.61
2018-06-17T04:50:23.659Z,1004.59
2018-06-17T04:51:23.688Z,1004.57
2018-06-17T04:52:23.717Z,1004.60
2018-06-17T04:53:23.745Z,1004.61
2018-06-17T04:54:23.772Z,1004.61
2018-06-17T04:55:23.801Z,1004.57
2018-06-17T04:56:23.830Z,1004.58
2018-06-17T04:57:23.859Z,1004.58
2018-06-17T04:58:23.887Z,1004.56
2018-06-17T04:59:23.915Z,1004.56
2018-06-17T05:00:23.944Z,1004.55
2018-06-17T05:01:23.972Z,1004.58
2018-06-17T05:02:24.047Z,1004.54
2018-06-17T05:03:24.028Z,1004.55
2018-06-17T05:04:24.057Z,1004.55
2018-06-17T05:05:24.087Z,1004.55
2018-06-17T05:06:24.114Z,1004.51
2018-06-17T05:07:31.253Z,1004.52
2018-06-17T05:09:17.086Z,1004.55
2018-06-17T05:10:17.066Z,1004.58
2018-06-17T05:12:10.852Z,1004.55
2018-06-17T05:13:10.825Z,1004.54
2018-06-17T05:15:16.524Z,1004.52
2018-06-17T05:16:16.504Z,1004.53
2018-06-17T05:18:09.422Z,1004.52
2018-06-17T05:19:09.424Z,1004.49
2018-06-17T05:21:04.039Z,1004.52
2018-06-17T05:22:04.035Z,1004.49
2018-06-17T05:24:09.716Z,1004.46
2018-06-17T05:25:09.716Z,1004.50
2018-06-17T05:27:02.613Z,1004.46
2018-06-17T05:28:02.634Z,1004.46
2018-06-17T05:29:57.248Z,1004.47
2018-06-17T05:30:57.248Z,1004.48
2018-06-17T05:33:02.928Z,1004.49
2018-06-17T05:34:02.933Z,1004.48
2018-06-17T05:35:55.847Z,1004.47
2018-06-17T05:36:55.847Z,1004.47
2018-06-17T05:39:01.508Z,1004.49
2018-06-17T05:40:01.534Z,1004.48
2018-06-17T05:41:54.445Z,1004.46
2018-06-17T05:42:54.444Z,1004.46
2018-06-17T05:44:47.362Z,1004.43
2018-06-17T05:45:47.362Z,1004.45
2018-06-17T05:47:53.065Z,1004.42
2018-06-17T05:48:53.043Z,1004.38
2018-06-17T05:50:45.941Z,1004.42
2018-06-17T05:51:45.962Z,1004.38
2018-06-17T05:53:40.580Z,1004.38
2018-06-17T05:54:40.585Z,1004.42
2018-06-17T05:56:46.259Z,1004.35
2018-06-17T05:57:46.257Z,1004.36
2018-06-17T05:59:39.162Z,1004.35
2018-06-17T06:00:39.178Z,1004.35
2018-06-17T06:02:33.791Z,1004.32
2018-06-17T06:03:33.793Z,1004.33
2018-06-17T06:05:39.470Z,1004.35
2018-06-17T06:06:39.507Z,1004.37
2018-06-17T06:08:32.388Z,1004.36
2018-06-17T06:09:32.389Z,1004.40
2018-06-17T06:11:27.002Z,1004.39
2018-06-17T06:12:27.002Z,1004.40
2018-06-17T06:14:32.684Z,1004.38
2018-06-17T06:15:32.684Z,1004.36
2018-06-17T06:17:25.601Z,1004.34
2018-06-17T06:18:25.601Z,1004.34
2018-06-17T06:20:31.283Z,1004.34
2018-06-17T06:21:31.286Z,1004.32
2018-06-17T06:23:24.200Z,1004.33
2018-06-17T06:24:24.200Z,1004.32
2018-06-17T06:26:17.151Z,1004.31
2018-06-17T06:27:17.117Z,1004.36
2018-06-17T06:29:22.776Z,1004.33
2018-06-17T06:30:22.801Z,1004.33
2018-06-17T06:32:15.716Z,1004.33
2018-06-17T06:33:15.716Z,1004.36
2018-06-17T06:35:10.330Z,1004.34
2018-06-17T06:36:10.358Z,1004.34
2018-06-17T06:38:16.011Z,1004.33
2018-06-17T06:39:16.011Z,1004.35
2018-06-17T06:41:08.943Z,1004.35
2018-06-17T06:42:08.928Z,1004.38
2018-06-17T06:44:14.610Z,1004.38
2018-06-17T06:45:14.610Z,1004.39
2018-06-17T06:47:07.521Z,1004.38
2018-06-17T06:48:07.527Z,1004.41
2018-06-17T06:49:07.558Z,1004.38
2018-06-17T06:50:07.644Z,1004.40
2018-06-17T06:51:07.670Z,1004.46
2018-06-17T06:52:07.644Z,1004.44
2018-06-17T06:53:07.682Z,1004.45
2018-06-17T06:54:07.697Z,1004.42
2018-06-17T06:55:07.726Z,1004.43
2018-06-17T06:56:07.755Z,1004.42
2018-06-17T06:57:07.785Z,1004.44
2018-06-17T06:58:07.811Z,1004.39
2018-06-17T06:59:07.840Z,1004.41
2018-06-17T07:00:07.883Z,1004.40
2018-06-17T07:01:07.901Z,1004.42
2018-06-17T07:02:07.925Z,1004.44
2018-06-17T07:03:07.987Z,1004.43
2018-06-17T07:04:07.986Z,1004.44
2018-06-17T07:05:08.011Z,1004.39
2018-06-17T07:06:08.063Z,1004.36
2018-06-17T07:07:08.067Z,1004.34
2018-06-17T07:08:08.117Z,1004.35
2018-06-17T07:09:08.124Z,1004.34
2018-06-17T07:10:08.157Z,1004.32
2018-06-17T07:11:08.181Z,1004.33
2018-06-17T07:12:08.210Z,1004.31
2018-06-17T07:13:08.239Z,1004.31
2018-06-17T07:14:08.266Z,1004.31
2018-06-17T07:15:08.295Z,1004.30
2018-06-17T07:16:08.324Z,1004.31
2018-06-17T07:17:08.352Z,1004.36
2018-06-17T07:18:08.411Z,1004.36
2018-06-17T07:19:08.424Z,1004.33
2018-06-17T07:20:08.437Z,1004.29
2018-06-17T07:21:08.465Z,1004.34
2018-06-17T07:22:08.526Z,1004.31
2018-06-17T07:23:08.522Z,1004.31
2018-06-17T07:24:08.551Z,1004.29
2018-06-17T07:25:08.639Z,1004.29
2018-06-17T07:26:08.608Z,1004.27
2018-06-17T07:27:08.637Z,1004.27
2018-06-17T07:28:08.665Z,1004.28
2018-06-17T07:29:08.693Z,1004.29
2018-06-17T07:30:08.721Z,1004.29
2018-06-17T07:31:08.782Z,1004.26
2018-06-17T07:32:08.801Z,1004.28
2018-06-17T07:33:08.808Z,1004.28
2018-06-17T07:34:08.835Z,1004.32
2018-06-17T07:35:08.866Z,1004.27
2018-06-17T07:36:08.892Z,1004.28
2018-06-17T07:37:08.926Z,1004.30
2018-06-17T07:38:08.949Z,1004.33
2018-06-17T07:39:08.978Z,1004.31
2018-06-17T07:40:09.007Z,1004.30
2018-06-17T07:41:09.064Z,1004.30
2018-06-17T07:42:09.062Z,1004.31
2018-06-17T07:43:09.091Z,1004.30
2018-06-17T07:44:09.169Z,1004.31
2018-06-17T07:45:09.149Z,1004.27
2018-06-17T07:46:09.212Z,1004.27
2018-06-17T07:47:09.218Z,1004.27
2018-06-17T07:48:09.234Z,1004.24
2018-06-17T07:49:09.263Z,1004.26
2018-06-17T07:50:09.290Z,1004.24
2018-06-17T07:51:09.318Z,1004.29
2018-06-17T07:52:09.350Z,1004.25
2018-06-17T07:53:09.376Z,1004.28
2018-06-17T07:54:09.404Z,1004.25
2018-06-17T07:55:09.433Z,1004.24
2018-06-17T07:56:09.463Z,1004.22
2018-06-17T07:57:09.492Z,1004.19
2018-06-17T07:58:09.519Z,1004.23
2018-06-17T07:59:09.547Z,1004.23
2018-06-17T08:00:09.582Z,1004.23
2018-06-17T08:01:09.604Z,1004.23
2018-06-17T08:02:09.669Z,1004.20
2018-06-17T08:03:09.659Z,1004.22
2018-06-17T08:04:09.689Z,1004.23
2018-06-17T08:05:09.736Z,1004.19
2018-06-17T08:06:09.746Z,1004.22
2018-06-17T08:07:09.773Z,1004.20
2018-06-17T08:08:09.802Z,1004.18
2018-06-17T08:09:09.831Z,1004.19
2018-06-17T08:10:09.860Z,1004.18
2018-06-17T08:11:09.888Z,1004.17
2018-06-17T08:12:09.917Z,1004.21
2018-06-17T08:13:09.944Z,1004.18
2018-06-17T08:14:09.994Z,1004.19
2018-06-17T08:15:10.001Z,1004.18
2018-06-17T08:16:10.033Z,1004.25
2018-06-17T08:17:10.058Z,1004.22
2018-06-17T08:18:10.087Z,1004.22
2018-06-17T08:19:10.115Z,1004.18
2018-06-17T08:20:10.239Z,1004.18
2018-06-17T08:21:10.224Z,1004.20
2018-06-17T08:22:10.200Z,1004.18
2018-06-17T08:23:10.231Z,1004.17
2018-06-17T08:24:10.257Z,1004.16
2018-06-17T08:25:10.286Z,1004.17
2018-06-17T08:26:10.315Z,1004.19
2018-06-17T08:27:10.342Z,1004.23
2018-06-17T08:28:10.371Z,1004.21
2018-06-17T08:29:10.400Z,1004.19
2018-06-17T08:30:10.427Z,1004.19
2018-06-17T08:31:10.456Z,1004.17
2018-06-17T08:32:10.485Z,1004.15
2018-06-17T08:33:10.514Z,1004.16
2018-06-17T08:34:10.590Z,1004.13
2018-06-17T08:35:10.570Z,1004.14
2018-06-17T08:36:10.599Z,1004.14
2018-06-17T08:37:10.629Z,1004.18
2018-06-17T08:38:10.655Z,1004.16
2018-06-17T08:39:10.683Z,1004.16
2018-06-17T08:40:10.724Z,1004.15
2018-06-17T08:41:10.743Z,1004.14
2018-06-17T08:42:10.769Z,1004.13
2018-06-17T08:43:10.797Z,1004.12
2018-06-17T08:44:10.826Z,1004.13
2018-06-17T08:45:10.854Z,1004.12
2018-06-17T08:46:10.883Z,1004.10
2018-06-17T08:47:10.913Z,1004.12
2018-06-17T08:48:10.940Z,1004.12
2018-06-17T08:49:10.970Z,1004.15
2018-06-17T08:50:10.997Z,1004.12
2018-06-17T08:51:11.025Z,1004.10
2018-06-17T08:52:11.054Z,1004.13
2018-06-17T08:53:11.083Z,1004.09
2018-06-17T08:54:11.139Z,1004.08
2018-06-17T08:55:11.138Z,1004.11
2018-06-17T08:56:11.167Z,1004.07
2018-06-17T08:57:11.196Z,1004.09
2018-06-17T08:58:11.224Z,1004.11
2018-06-17T08:59:11.256Z,1004.10
2018-06-17T09:00:11.303Z,1004.10
2018-06-17T09:01:11.310Z,1004.09
2018-06-17T09:02:11.340Z,1004.09
2018-06-17T09:03:11.369Z,1004.07
2018-06-17T09:04:11.395Z,1004.09
2018-06-17T09:05:11.424Z,1004.09
2018-06-17T09:06:11.451Z,1004.03
2018-06-17T09:07:11.480Z,1004.06
2018-06-17T09:08:11.508Z,1004.05
2018-06-17T09:09:11.539Z,1004.01
2018-06-17T09:10:11.565Z,1004.00
2018-06-17T09:11:11.614Z,1004.05
2018-06-17T09:12:11.642Z,1004.00
2018-06-17T09:13:11.651Z,1003.98
2018-06-17T09:14:11.678Z,1003.99
2018-06-17T09:15:11.708Z,1004.01
2018-06-17T09:16:11.736Z,1003.99
2018-06-17T09:17:11.764Z,1004.00
2018-06-17T09:18:11.798Z,1003.99
2018-06-17T09:19:11.820Z,1004.00
2018-06-17T09:20:11.850Z,1003.97
2018-06-17T09:21:11.878Z,1003.98
2018-06-17T09:22:11.926Z,1003.95
2018-06-17T09:23:11.935Z,1003.95
2018-06-17T09:24:11.988Z,1003.98
2018-06-17T09:25:12.006Z,1003.93
2018-06-17T09:26:12.043Z,1003.94
2018-06-17T09:27:12.049Z,1003.95
2018-06-17T09:28:12.077Z,1003.91
2018-06-17T09:29:12.106Z,1003.87
2018-06-17T09:30:12.134Z,1003.90
2018-06-17T09:31:12.162Z,1003.85
2018-06-17T09:32:12.327Z,1003.89
2018-06-17T09:33:12.221Z,1003.85
2018-06-17T09:34:12.248Z,1003.80
2018-06-17T09:35:12.278Z,1003.83
2018-06-17T09:36:12.306Z,1003.80
2018-06-17T09:37:12.334Z,1003.78
2018-06-17T09:38:12.361Z,1003.79
2018-06-17T09:39:12.390Z,1003.78
2018-06-17T09:40:12.423Z,1003.75
2018-06-17T09:41:12.448Z,1003.77
2018-06-17T09:42:12.476Z,1003.72
2018-06-17T09:43:12.503Z,1003.74
2018-06-17T09:44:12.533Z,1003.71
2018-06-17T09:45:12.561Z,1003.68
2018-06-17T09:46:12.626Z,1003.69
2018-06-17T09:47:12.618Z,1003.68
2018-06-17T09:48:12.646Z,1003.67
2018-06-17T09:49:12.675Z,1003.67
2018-06-17T09:50:12.719Z,1003.70
2018-06-17T09:51:12.765Z,1003.68
2018-06-17T09:52:12.760Z,1003.70
2018-06-17T09:53:12.788Z,1003.67
2018-06-17T09:54:12.816Z,1003.68
2018-06-17T09:55:12.845Z,1003.67
2018-06-17T09:56:12.874Z,1003.64
2018-06-17T09:57:12.902Z,1003.60
2018-06-17T09:58:12.931Z,1003.65
2018-06-17T09:59:12.959Z,1003.61
2018-06-17T10:00:12.993Z,1003.62
2018-06-17T10:01:13.016Z,1003.64
2018-06-17T10:02:13.043Z,1003.61
2018-06-17T10:03:13.073Z,1003.61
2018-06-17T10:04:13.101Z,1003.63
2018-06-17T10:05:13.130Z,1003.65
2018-06-17T10:06:13.163Z,1003.61
2018-06-17T10:07:13.187Z,1003.62
2018-06-17T10:08:13.215Z,1003.66
2018-06-17T10:09:13.244Z,1003.63
2018-06-17T10:10:13.309Z,1003.69
2018-06-17T10:11:13.304Z,1003.67
2018-06-17T10:12:13.329Z,1003.63
2018-06-17T10:13:13.357Z,1003.61
2018-06-17T10:14:13.385Z,1003.60
2018-06-17T10:15:13.414Z,1003.56
2018-06-17T10:16:13.443Z,1003.60
2018-06-17T10:17:13.472Z,1003.58
2018-06-17T10:18:13.499Z,1003.57
2018-06-17T10:19:13.528Z,1003.55
2018-06-17T10:20:13.558Z,1003.55
2018-06-17T10:21:13.646Z,1003.55
2018-06-17T10:22:13.612Z,1003.56
2018-06-17T10:23:13.643Z,1003.51
2018-06-17T10:24:13.670Z,1003.49
2018-06-17T10:25:13.699Z,1003.52
2018-06-17T10:26:13.727Z,1003.49
2018-06-17T10:27:13.765Z,1003.50
2018-06-17T10:28:13.784Z,1003.49
2018-06-17T10:29:13.848Z,1003.51
2018-06-17T10:30:13.841Z,1003.52
2018-06-17T10:31:13.898Z,1003.55
2018-06-17T10:32:13.920Z,1003.52
2018-06-17T10:33:13.926Z,1003.54
2018-06-17T10:34:13.955Z,1003.50
2018-06-17T10:35:13.998Z,1003.52
2018-06-17T10:36:14.012Z,1003.50
2018-06-17T10:37:14.042Z,1003.48
2018-06-17T10:38:14.069Z,1003.47
2018-06-17T10:39:14.102Z,1003.47
2018-06-17T10:40:14.126Z,1003.47
2018-06-17T10:41:14.154Z,1003.46
2018-06-17T10:42:14.183Z,1003.41
2018-06-17T10:43:14.211Z,1003.46
2018-06-17T10:44:14.262Z,1003.46
2018-06-17T10:45:14.268Z,1003.44
2018-06-17T10:46:14.298Z,1003.43
2018-06-17T10:47:14.326Z,1003.44
2018-06-17T10:48:14.352Z,1003.40
2018-06-17T10:49:14.381Z,1003.42
2018-06-17T10:50:14.410Z,1003.40
2018-06-17T10:51:14.438Z,1003.39
2018-06-17T10:52:14.467Z,1003.38
2018-06-17T10:53:14.498Z,1003.42
2018-06-17T10:54:14.524Z,1003.43
2018-06-17T10:55:14.554Z,1003.41
2018-06-17T10:56:14.668Z,1003.37
2018-06-17T10:57:14.612Z,1003.38
2018-06-17T10:58:14.638Z,1003.34
2018-06-17T10:59:14.666Z,1003.32
2018-06-17T11:00:14.694Z,1003.29
2018-06-17T11:01:14.785Z,1003.32
2018-06-17T11:02:14.753Z,1003.32
2018-06-17T11:03:14.780Z,1003.31
2018-06-17T11:04:14.808Z,1003.28
2018-06-17T11:05:14.849Z,1003.27
2018-06-17T11:06:14.867Z,1003.26
2018-06-17T11:07:14.925Z,1003.29
2018-06-17T11:08:14.923Z,1003.28
2018-06-17T11:09:14.974Z,1003.30
2018-06-17T11:10:14.980Z,1003.31
2018-06-17T11:11:15.010Z,1003.28
2018-06-17T11:12:15.037Z,1003.28
2018-06-17T11:13:15.134Z,1003.29
2018-06-17T11:14:15.094Z,1003.30
2018-06-17T11:15:15.134Z,1003.28
2018-06-17T11:16:15.151Z,1003.27
2018-06-17T11:17:15.180Z,1003.30
2018-06-17T11:18:15.207Z,1003.30
2018-06-17T11:19:15.236Z,1003.33
2018-06-17T11:20:15.266Z,1003.33
2018-06-17T11:21:15.294Z,1003.30
2018-06-17T11:22:15.321Z,1003.28
2018-06-17T11:23:15.350Z,1003.27
2018-06-17T11:24:15.378Z,1003.27
2018-06-17T11:25:15.407Z,1003.26
2018-06-17T11:26:15.435Z,1003.22
2018-06-17T11:27:15.467Z,1003.27
2018-06-17T11:28:15.517Z,1003.24
2018-06-17T11:29:15.521Z,1003.28
2018-06-17T11:30:15.549Z,1003.26
2018-06-17T11:31:15.578Z,1003.26
2018-06-17T11:32:15.646Z,1003.23
2018-06-17T11:33:15.634Z,1003.23
2018-06-17T11:34:15.663Z,1003.26
2018-06-17T11:35:15.691Z,1003.21
2018-06-17T11:36:15.723Z,1003.22
2018-06-17T11:37:15.748Z,1003.19
2018-06-17T11:38:15.798Z,1003.19
2018-06-17T11:39:15.806Z,1003.20
2018-06-17T11:40:15.835Z,1003.18
2018-06-17T11:41:15.863Z,1003.17
2018-06-17T11:42:15.891Z,1003.15
2018-06-17T11:43:15.919Z,1003.12
2018-06-17T11:44:15.948Z,1003.11
2018-06-17T11:45:15.981Z,1003.11
2018-06-17T11:46:16.004Z,1003.14
2018-06-17T11:47:16.033Z,1003.12
2018-06-17T11:48:16.066Z,1003.09
2018-06-17T11:49:16.092Z,1003.09
2018-06-17T11:50:16.119Z,1003.07
2018-06-17T11:51:16.152Z,1003.03
2018-06-17T11:52:16.176Z,1003.04
2018-06-17T11:53:16.205Z,1003.02
2018-06-17T11:54:16.232Z,1002.99
2018-06-17T11:55:16.261Z,1003.02
2018-06-17T11:56:16.293Z,1003.01
2018-06-17T11:57:16.318Z,1003.03
2018-06-17T11:58:16.345Z,1002.98
2018-06-17T11:59:16.374Z,1002.97
2018-06-17T12:00:16.439Z,1002.91
2018-06-17T12:01:16.432Z,1002.98
2018-06-17T12:02:16.460Z,1003.00
2018-06-17T12:03:16.488Z,1002.96
2018-06-17T12:04:16.517Z,1002.93
2018-06-17T12:05:16.545Z,1002.95
2018-06-17T12:06:16.620Z,1002.93
2018-06-17T12:07:16.602Z,1002.87
2018-06-17T12:08:16.643Z,1002.91
2018-06-17T12:09:16.660Z,1002.97
2018-06-17T12:10:16.688Z,1002.97
2018-06-17T12:11:16.716Z,1002.96
2018-06-17T12:12:16.746Z,1002.95
2018-06-17T12:13:16.810Z,1002.97
2018-06-17T12:14:16.801Z,1002.91
2018-06-17T12:15:16.830Z,1002.94
2018-06-17T12:16:16.867Z,1002.89
2018-06-17T12:17:16.887Z,1002.90
2018-06-17T12:18:16.916Z,1002.89
2018-06-17T12:19:16.944Z,1002.85
2018-06-17T12:20:16.974Z,1002.81
2018-06-17T12:21:17.003Z,1002.84
2018-06-17T12:22:17.029Z,1002.80
2018-06-17T12:23:17.057Z,1002.78
2018-06-17T12:24:17.086Z,1002.79
2018-06-17T12:25:17.117Z,1002.81
2018-06-17T12:26:17.143Z,1002.76
2018-06-17T12:27:17.172Z,1002.84
2018-06-17T12:28:17.200Z,1002.83
2018-06-17T12:29:17.230Z,1002.82
2018-06-17T12:30:17.257Z,1002.85
2018-06-17T12:31:17.285Z,1002.82
2018-06-17T12:32:17.315Z,1002.79
2018-06-17T12:33:17.343Z,1002.75
2018-06-17T12:34:17.371Z,1002.74
2018-06-17T12:35:17.400Z,1002.69
2018-06-17T12:36:17.429Z,1002.74
2018-06-17T12:37:17.458Z,1002.72
2018-06-17T12:38:17.484Z,1002.73